Main page
METAR-TAF:

METAR-TAF

Airports :

Ouagadougou Airport

Ouagadougou, Burkina Faso

latitude: 12-21N, longitude: 001-31W, elevation: 316 m

Current weather observation

The report was made 43 minutes ago, at 02:00 UTC
Wind 6 kt from the South
Temperature 26°C
Humidity 89%
Pressure 1011 hPa
Visibility 10 km or more
Few clouds at a height of 1600 ft

METAR: DFFD 100200Z 18006KT 9999 FEW016 26/24 Q1011 NOSIG

Time: 02:43 (02:43 UTC)

Forecast

The report was made 3 hours and 43 minutes ago, at 23:00 UTC
Forecast valid from 10 at 00 UTC to 11 at 06 UTC
Wind 8 kt from the South/Southwest
Visibility 10 km or more
Few clouds at a height of 2000 ft
Temporary
from 10 at 12 UTC to 10 at 22 UTC
Visibility: 4000 m
Scattered clouds at a height of 2000 ft
Scattered clouds at a height of 3300 ft, Cumulonimbus.
thunderstorm, rain showers

TAF: DFFD 092300Z 1000/1106 20008KT 9999 FEW020 TEMPO 1012/1022 4000 TS SHRA SCT020 SCT033CB

Weather observations and forecasts of more than 4000 airports (METAR and TAF reports).

The available stations are represented by yellow and red dots on the map.

Hover mouse over dot to see the name of the station.

Then click to see weather observations and forecasts.

To change the map : click on the green buttons with a black cross to zoom in, on the green button with a dash to zoom out, or on the green arrows for adjacent maps.


METAR-TAF: